sensor_id;sensor_type;location;lat;lon;timestamp;P1;durP1;ratioP1;P2;durP2;ratioP2
16969;SDS011;8601;48.718;8.992;2023-06-01T00:00:28;4.53;;;2.60;;
16969;SDS011;8601;48.718;8.992;2023-06-01T00:02:56;3.40;;;2.60;;
16969;SDS011;8601;48.718;8.992;2023-06-01T00:05:23;4.90;;;2.67;;
16969;SDS011;8601;48.718;8.992;2023-06-01T00:07:51;3.57;;;2.40;;
16969;SDS011;8601;48.718;8.992;2023-06-01T00:10:18;3.53;;;2.50;;
16969;SDS011;8601;48.718;8.992;2023-06-01T00:12:45;4.60;;;2.70;;
16969;SDS011;8601;48.718;8.992;2023-06-01T00:15:12;4.13;;;2.80;;
16969;SDS011;8601;48.718;8.992;2023-06-01T00:17:39;3.77;;;2.60;;
16969;SDS011;8601;48.718;8.992;2023-06-01T00:20:06;4.47;;;3.20;;
16969;SDS011;8601;48.718;8.992;2023-06-01T00:22:35;4.97;;;2.90;;
16969;SDS011;8601;48.718;8.992;2023-06-01T00:25:05;3.30;;;2.80;;
16969;SDS011;8601;48.718;8.992;2023-06-01T00:27:32;4.40;;;2.83;;
16969;SDS011;8601;48.718;8.992;2023-06-01T00:30:00;5.10;;;2.83;;
16969;SDS011;8601;48.718;8.992;2023-06-01T00:32:27;4.17;;;3.13;;
16969;SDS011;8601;48.718;8.992;2023-06-01T00:34:54;4.30;;;2.70;;
16969;SDS011;8601;48.718;8.992;2023-06-01T00:37:21;3.60;;;2.43;;
16969;SDS011;8601;48.718;8.992;2023-06-01T00:39:47;5.33;;;2.83;;
16969;SDS011;8601;48.718;8.992;2023-06-01T00:42:16;6.70;;;2.77;;
16969;SDS011;8601;48.718;8.992;2023-06-01T00:44:43;4.40;;;2.70;;
16969;SDS011;8601;48.718;8.992;2023-06-01T00:47:09;5.63;;;2.67;;
16969;SDS011;8601;48.718;8.992;2023-06-01T00:49:36;4.83;;;2.67;;
16969;SDS011;8601;48.718;8.992;2023-06-01T00:52:04;4.87;;;2.67;;
16969;SDS011;8601;48.718;8.992;2023-06-01T00:54:31;4.50;;;2.50;;
16969;SDS011;8601;48.718;8.992;2023-06-01T00:56:59;3.70;;;2.63;;
16969;SDS011;8601;48.718;8.992;2023-06-01T00:59:28;3.77;;;2.60;;
16969;SDS011;8601;48.718;8.992;2023-06-01T01:01:55;5.13;;;2.40;;
16969;SDS011;8601;48.718;8.992;2023-06-01T01:04:22;5.77;;;3.17;;
16969;SDS011;8601;48.718;8.992;2023-06-01T01:06:53;5.33;;;2.70;;
16969;SDS011;8601;48.718;8.992;2023-06-01T01:09:31;5.37;;;2.60;;
16969;SDS011;8601;48.718;8.992;2023-06-01T01:12:03;4.20;;;2.70;;
16969;SDS011;8601;48.718;8.992;2023-06-01T01:14:38;3.77;;;2.60;;
16969;SDS011;8601;48.718;8.992;2023-06-01T01:17:10;3.43;;;2.53;;
16969;SDS011;8601;48.718;8.992;2023-06-01T01:19:57;3.20;;;2.57;;
16969;SDS011;8601;48.718;8.992;2023-06-01T01:22:43;3.40;;;2.40;;
16969;SDS011;8601;48.718;8.992;2023-06-01T01:25:27;4.93;;;3.13;;
16969;SDS011;8601;48.718;8.992;2023-06-01T01:28:32;4.40;;;2.60;;
16969;SDS011;8601;48.718;8.992;2023-06-01T01:31:01;3.73;;;2.83;;
16969;SDS011;8601;48.718;8.992;2023-06-01T01:33:31;3.53;;;3.20;;
16969;SDS011;8601;48.718;8.992;2023-06-01T01:35:59;3.23;;;2.60;;
16969;SDS011;8601;48.718;8.992;2023-06-01T01:38:27;4.43;;;2.67;;
16969;SDS011;8601;48.718;8.992;2023-06-01T01:40:54;4.53;;;2.70;;
16969;SDS011;8601;48.718;8.992;2023-06-01T01:43:21;4.13;;;3.00;;
16969;SDS011;8601;48.718;8.992;2023-06-01T01:45:51;3.87;;;2.60;;
16969;SDS011;8601;48.718;8.992;2023-06-01T01:48:25;4.17;;;2.63;;
16969;SDS011;8601;48.718;8.992;2023-06-01T01:51:01;5.50;;;2.60;;
16969;SDS011;8601;48.718;8.992;2023-06-01T01:53:30;3.97;;;2.60;;
16969;SDS011;8601;48.718;8.992;2023-06-01T01:55:58;3.80;;;2.70;;
16969;SDS011;8601;48.718;8.992;2023-06-01T01:58:25;4.60;;;2.80;;
16969;SDS011;8601;48.718;8.992;2023-06-01T02:00:55;5.00;;;2.70;;
16969;SDS011;8601;48.718;8.992;2023-06-01T02:03:22;4.87;;;2.73;;
16969;SDS011;8601;48.718;8.992;2023-06-01T02:05:50;5.37;;;2.60;;
16969;SDS011;8601;48.718;8.992;2023-06-01T02:08:17;3.03;;;2.27;;
16969;SDS011;8601;48.718;8.992;2023-06-01T02:10:44;5.10;;;2.90;;
16969;SDS011;8601;48.718;8.992;2023-06-01T02:13:11;5.40;;;2.97;;
16969;SDS011;8601;48.718;8.992;2023-06-01T02:15:38;5.67;;;3.00;;
16969;SDS011;8601;48.718;8.992;2023-06-01T02:18:07;2.97;;;2.33;;
16969;SDS011;8601;48.718;8.992;2023-06-01T02:20:34;5.57;;;2.67;;
16969;SDS011;8601;48.718;8.992;2023-06-01T02:23:00;5.23;;;2.80;;
16969;SDS011;8601;48.718;8.992;2023-06-01T02:25:27;3.67;;;2.90;;
16969;SDS011;8601;48.718;8.992;2023-06-01T02:27:54;4.33;;;2.70;;
16969;SDS011;8601;48.718;8.992;2023-06-01T02:30:21;3.43;;;2.50;;
16969;SDS011;8601;48.718;8.992;2023-06-01T02:32:48;4.13;;;2.80;;
16969;SDS011;8601;48.718;8.992;2023-06-01T02:35:17;5.97;;;2.33;;
16969;SDS011;8601;48.718;8.992;2023-06-01T02:37:44;4.43;;;2.80;;
16969;SDS011;8601;48.718;8.992;2023-06-01T02:40:11;4.93;;;3.03;;
16969;SDS011;8601;48.718;8.992;2023-06-01T02:42:37;5.03;;;2.67;;
16969;SDS011;8601;48.718;8.992;2023-06-01T02:45:05;8.17;;;3.27;;
16969;SDS011;8601;48.718;8.992;2023-06-01T02:47:33;5.30;;;2.90;;
16969;SDS011;8601;48.718;8.992;2023-06-01T02:49:59;5.87;;;3.00;;
16969;SDS011;8601;48.718;8.992;2023-06-01T02:52:28;3.30;;;2.70;;
16969;SDS011;8601;48.718;8.992;2023-06-01T02:54:54;3.93;;;2.67;;
16969;SDS011;8601;48.718;8.992;2023-06-01T02:57:21;3.83;;;3.10;;
16969;SDS011;8601;48.718;8.992;2023-06-01T02:59:48;5.37;;;2.93;;
16969;SDS011;8601;48.718;8.992;2023-06-01T03:02:16;3.87;;;2.80;;
16969;SDS011;8601;48.718;8.992;2023-06-01T03:04:42;4.17;;;3.00;;
16969;SDS011;8601;48.718;8.992;2023-06-01T03:07:10;5.07;;;2.70;;
16969;SDS011;8601;48.718;8.992;2023-06-01T03:09:39;4.07;;;2.73;;
16969;SDS011;8601;48.718;8.992;2023-06-01T03:12:06;5.13;;;2.93;;
16969;SDS011;8601;48.718;8.992;2023-06-01T03:14:33;5.70;;;2.97;;
16969;SDS011;8601;48.718;8.992;2023-06-01T03:17:00;6.07;;;3.03;;
16969;SDS011;8601;48.718;8.992;2023-06-01T03:19:28;5.63;;;3.00;;
16969;SDS011;8601;48.718;8.992;2023-06-01T03:21:54;3.10;;;2.80;;
16969;SDS011;8601;48.718;8.992;2023-06-01T03:24:21;4.50;;;3.00;;
16969;SDS011;8601;48.718;8.992;2023-06-01T03:26:54;6.13;;;3.93;;
16969;SDS011;8601;48.718;8.992;2023-06-01T03:29:21;4.20;;;3.00;;
16969;SDS011;8601;48.718;8.992;2023-06-01T03:31:47;6.33;;;3.30;;
16969;SDS011;8601;48.718;8.992;2023-06-01T03:34:15;4.80;;;2.80;;
16969;SDS011;8601;48.718;8.992;2023-06-01T03:36:42;4.83;;;3.00;;
16969;SDS011;8601;48.718;8.992;2023-06-01T03:39:13;3.47;;;2.77;;
16969;SDS011;8601;48.718;8.992;2023-06-01T03:41:41;4.47;;;3.10;;
16969;SDS011;8601;48.718;8.992;2023-06-01T03:44:10;5.97;;;3.23;;
16969;SDS011;8601;48.718;8.992;2023-06-01T03:46:37;4.07;;;3.00;;
16969;SDS011;8601;48.718;8.992;2023-06-01T03:49:04;4.20;;;3.03;;
16969;SDS011;8601;48.718;8.992;2023-06-01T03:51:31;3.43;;;2.97;;
16969;SDS011;8601;48.718;8.992;2023-06-01T03:53:58;4.87;;;3.20;;
16969;SDS011;8601;48.718;8.992;2023-06-01T03:56:25;5.00;;;3.17;;
16969;SDS011;8601;48.718;8.992;2023-06-01T03:58:52;4.87;;;2.90;;
16969;SDS011;8601;48.718;8.992;2023-06-01T04:01:20;5.87;;;3.50;;
16969;SDS011;8601;48.718;8.992;2023-06-01T04:03:47;4.63;;;3.23;;
16969;SDS011;8601;48.718;8.992;2023-06-01T04:06:15;5.20;;;3.50;;
16969;SDS011;8601;48.718;8.992;2023-06-01T04:08:43;5.73;;;3.30;;
16969;SDS011;8601;48.718;8.992;2023-06-01T04:11:14;3.27;;;2.97;;
16969;SDS011;8601;48.718;8.992;2023-06-01T04:13:41;7.60;;;3.43;;
16969;SDS011;8601;48.718;8.992;2023-06-01T04:16:08;6.27;;;3.33;;
16969;SDS011;8601;48.718;8.992;2023-06-01T04:18:37;7.13;;;3.50;;
16969;SDS011;8601;48.718;8.992;2023-06-01T04:21:04;5.70;;;3.23;;
16969;SDS011;8601;48.718;8.992;2023-06-01T04:23:31;4.80;;;3.10;;
16969;SDS011;8601;48.718;8.992;2023-06-01T04:25:59;7.33;;;3.20;;
16969;SDS011;8601;48.718;8.992;2023-06-01T04:28:27;6.73;;;3.10;;
16969;SDS011;8601;48.718;8.992;2023-06-01T04:30:54;8.57;;;3.67;;
16969;SDS011;8601;48.718;8.992;2023-06-01T04:33:22;4.53;;;3.37;;
16969;SDS011;8601;48.718;8.992;2023-06-01T04:35:51;6.23;;;3.37;;
16969;SDS011;8601;48.718;8.992;2023-06-01T04:38:18;5.53;;;3.10;;
16969;SDS011;8601;48.718;8.992;2023-06-01T04:40:46;3.87;;;3.00;;
16969;SDS011;8601;48.718;8.992;2023-06-01T04:43:13;3.63;;;2.93;;
16969;SDS011;8601;48.718;8.992;2023-06-01T04:45:44;5.53;;;3.10;;
16969;SDS011;8601;48.718;8.992;2023-06-01T04:48:11;5.87;;;3.40;;
16969;SDS011;8601;48.718;8.992;2023-06-01T04:50:41;5.00;;;3.40;;
16969;SDS011;8601;48.718;8.992;2023-06-01T04:53:10;5.10;;;3.30;;
16969;SDS011;8601;48.718;8.992;2023-06-01T04:55:37;5.77;;;3.40;;
16969;SDS011;8601;48.718;8.992;2023-06-01T04:58:05;5.33;;;3.67;;
16969;SDS011;8601;48.718;8.992;2023-06-01T05:00:31;5.70;;;3.83;;
16969;SDS011;8601;48.718;8.992;2023-06-01T05:02:58;4.90;;;3.80;;
16969;SDS011;8601;48.718;8.992;2023-06-01T05:05:27;4.33;;;3.60;;
16969;SDS011;8601;48.718;8.992;2023-06-01T05:07:54;5.60;;;3.60;;
16969;SDS011;8601;48.718;8.992;2023-06-01T05:10:23;5.37;;;4.03;;
16969;SDS011;8601;48.718;8.992;2023-06-01T05:12:50;4.30;;;3.47;;
16969;SDS011;8601;48.718;8.992;2023-06-01T05:15:17;4.80;;;3.50;;
16969;SDS011;8601;48.718;8.992;2023-06-01T05:17:44;5.33;;;3.60;;
16969;SDS011;8601;48.718;8.992;2023-06-01T05:20:12;7.67;;;3.77;;
16969;SDS011;8601;48.718;8.992;2023-06-01T05:22:39;4.57;;;3.53;;
16969;SDS011;8601;48.718;8.992;2023-06-01T05:25:06;9.60;;;3.80;;
16969;SDS011;8601;48.718;8.992;2023-06-01T05:27:35;7.03;;;3.50;;
16969;SDS011;8601;48.718;8.992;2023-06-01T05:30:02;11.83;;;8.90;;
16969;SDS011;8601;48.718;8.992;2023-06-01T05:32:30;6.57;;;3.63;;
16969;SDS011;8601;48.718;8.992;2023-06-01T05:34:57;6.87;;;3.83;;
16969;SDS011;8601;48.718;8.992;2023-06-01T05:37:25;5.90;;;3.63;;
16969;SDS011;8601;48.718;8.992;2023-06-01T05:39:52;6.23;;;3.30;;
16969;SDS011;8601;48.718;8.992;2023-06-01T05:42:19;4.90;;;3.27;;
16969;SDS011;8601;48.718;8.992;2023-06-01T05:44:47;5.83;;;3.17;;
16969;SDS011;8601;48.718;8.992;2023-06-01T05:47:14;3.83;;;2.80;;
16969;SDS011;8601;48.718;8.992;2023-06-01T05:49:41;6.47;;;3.43;;
16969;SDS011;8601;48.718;8.992;2023-06-01T05:52:08;5.17;;;3.23;;
16969;SDS011;8601;48.718;8.992;2023-06-01T05:54:35;7.90;;;3.23;;
16969;SDS011;8601;48.718;8.992;2023-06-01T05:57:02;6.67;;;3.63;;
16969;SDS011;8601;48.718;8.992;2023-06-01T05:59:30;4.30;;;2.97;;
16969;SDS011;8601;48.718;8.992;2023-06-01T06:01:59;5.50;;;3.40;;
16969;SDS011;8601;48.718;8.992;2023-06-01T06:04:26;6.13;;;3.40;;
16969;SDS011;8601;48.718;8.992;2023-06-01T06:06:53;4.17;;;2.80;;
16969;SDS011;8601;48.718;8.992;2023-06-01T06:09:20;4.17;;;2.90;;
16969;SDS011;8601;48.718;8.992;2023-06-01T06:11:48;6.97;;;3.90;;
16969;SDS011;8601;48.718;8.992;2023-06-01T06:14:15;5.20;;;2.90;;
16969;SDS011;8601;48.718;8.992;2023-06-01T06:16:42;8.03;;;2.87;;
16969;SDS011;8601;48.718;8.992;2023-06-01T06:19:10;6.27;;;2.80;;
16969;SDS011;8601;48.718;8.992;2023-06-01T06:21:37;8.57;;;3.17;;
16969;SDS011;8601;48.718;8.992;2023-06-01T06:24:05;4.83;;;2.70;;
16969;SDS011;8601;48.718;8.992;2023-06-01T06:26:31;7.07;;;3.27;;
16969;SDS011;8601;48.718;8.992;2023-06-01T06:28:58;4.67;;;3.03;;
16969;SDS011;8601;48.718;8.992;2023-06-01T06:31:26;4.73;;;3.30;;
16969;SDS011;8601;48.718;8.992;2023-06-01T06:33:52;3.77;;;2.90;;
16969;SDS011;8601;48.718;8.992;2023-06-01T06:36:21;4.50;;;2.80;;
16969;SDS011;8601;48.718;8.992;2023-06-01T06:38:48;6.03;;;3.20;;
16969;SDS011;8601;48.718;8.992;2023-06-01T06:41:15;5.43;;;3.07;;
16969;SDS011;8601;48.718;8.992;2023-06-01T06:43:42;4.53;;;2.70;;
16969;SDS011;8601;48.718;8.992;2023-06-01T06:46:09;4.17;;;2.73;;
16969;SDS011;8601;48.718;8.992;2023-06-01T06:48:36;7.17;;;2.83;;
16969;SDS011;8601;48.718;8.992;2023-06-01T06:51:03;6.20;;;3.03;;
16969;SDS011;8601;48.718;8.992;2023-06-01T06:53:31;7.20;;;2.87;;
16969;SDS011;8601;48.718;8.992;2023-06-01T06:55:58;3.63;;;2.60;;
16969;SDS011;8601;48.718;8.992;2023-06-01T06:58:25;5.53;;;3.20;;
16969;SDS011;8601;48.718;8.992;2023-06-01T07:00:53;5.23;;;2.87;;
16969;SDS011;8601;48.718;8.992;2023-06-01T07:03:20;4.50;;;2.80;;
16969;SDS011;8601;48.718;8.992;2023-06-01T07:05:47;4.97;;;3.27;;
16969;SDS011;8601;48.718;8.992;2023-06-01T07:08:15;4.67;;;2.77;;
16969;SDS011;8601;48.718;8.992;2023-06-01T07:10:43;6.53;;;2.93;;
16969;SDS011;8601;48.718;8.992;2023-06-01T07:13:10;5.40;;;2.83;;
16969;SDS011;8601;48.718;8.992;2023-06-01T07:15:37;2.87;;;2.50;;
16969;SDS011;8601;48.718;8.992;2023-06-01T07:18:04;6.27;;;3.20;;
16969;SDS011;8601;48.718;8.992;2023-06-01T07:20:31;4.23;;;2.80;;
16969;SDS011;8601;48.718;8.992;2023-06-01T07:22:58;3.57;;;2.60;;
16969;SDS011;8601;48.718;8.992;2023-06-01T07:25:25;4.13;;;2.90;;
16969;SDS011;8601;48.718;8.992;2023-06-01T07:27:53;4.47;;;2.77;;
16969;SDS011;8601;48.718;8.992;2023-06-01T07:30:21;6.23;;;3.00;;
16969;SDS011;8601;48.718;8.992;2023-06-01T07:32:48;4.77;;;3.17;;
16969;SDS011;8601;48.718;8.992;2023-06-01T07:35:15;4.17;;;3.10;;
16969;SDS011;8601;48.718;8.992;2023-06-01T07:37:42;5.70;;;3.00;;
16969;SDS011;8601;48.718;8.992;2023-06-01T07:40:09;7.87;;;2.90;;
16969;SDS011;8601;48.718;8.992;2023-06-01T07:42:38;4.93;;;2.87;;
16969;SDS011;8601;48.718;8.992;2023-06-01T07:45:06;6.37;;;3.30;;
16969;SDS011;8601;48.718;8.992;2023-06-01T07:47:34;4.07;;;2.77;;
16969;SDS011;8601;48.718;8.992;2023-06-01T07:50:01;4.37;;;3.20;;
16969;SDS011;8601;48.718;8.992;2023-06-01T07:52:28;17.70;;;4.33;;
16969;SDS011;8601;48.718;8.992;2023-06-01T07:54:55;5.57;;;3.20;;
16969;SDS011;8601;48.718;8.992;2023-06-01T07:57:21;6.63;;;3.27;;
16969;SDS011;8601;48.718;8.992;2023-06-01T07:59:48;6.53;;;3.07;;
16969;SDS011;8601;48.718;8.992;2023-06-01T08:02:17;5.30;;;3.33;;
16969;SDS011;8601;48.718;8.992;2023-06-01T08:04:45;4.70;;;2.80;;
16969;SDS011;8601;48.718;8.992;2023-06-01T08:07:12;8.53;;;3.27;;
16969;SDS011;8601;48.718;8.992;2023-06-01T08:09:41;5.17;;;3.10;;
16969;SDS011;8601;48.718;8.992;2023-06-01T08:12:08;9.17;;;4.00;;
16969;SDS011;8601;48.718;8.992;2023-06-01T08:14:36;6.93;;;3.40;;
16969;SDS011;8601;48.718;8.992;2023-06-01T08:17:05;4.60;;;3.07;;
16969;SDS011;8601;48.718;8.992;2023-06-01T08:19:35;6.67;;;3.47;;
16969;SDS011;8601;48.718;8.992;2023-06-01T08:22:02;5.60;;;3.10;;
16969;SDS011;8601;48.718;8.992;2023-06-01T08:24:31;6.27;;;3.50;;
16969;SDS011;8601;48.718;8.992;2023-06-01T08:26:59;5.30;;;3.37;;
16969;SDS011;8601;48.718;8.992;2023-06-01T08:29:26;6.00;;;3.17;;
16969;SDS011;8601;48.718;8.992;2023-06-01T08:31:53;5.40;;;3.23;;
16969;SDS011;8601;48.718;8.992;2023-06-01T08:34:24;6.73;;;3.30;;
16969;SDS011;8601;48.718;8.992;2023-06-01T08:36:52;5.47;;;3.30;;
16969;SDS011;8601;48.718;8.992;2023-06-01T08:39:19;5.50;;;3.10;;
16969;SDS011;8601;48.718;8.992;2023-06-01T08:41:50;6.17;;;2.97;;
16969;SDS011;8601;48.718;8.992;2023-06-01T08:44:26;5.90;;;3.40;;
16969;SDS011;8601;48.718;8.992;2023-06-01T08:46:54;4.53;;;3.40;;
16969;SDS011;8601;48.718;8.992;2023-06-01T08:49:21;6.40;;;3.40;;
16969;SDS011;8601;48.718;8.992;2023-06-01T08:51:53;8.07;;;3.47;;
16969;SDS011;8601;48.718;8.992;2023-06-01T08:54:23;6.60;;;3.50;;
16969;SDS011;8601;48.718;8.992;2023-06-01T08:56:50;8.27;;;3.50;;
16969;SDS011;8601;48.718;8.992;2023-06-01T08:59:17;4.73;;;3.13;;
16969;SDS011;8601;48.718;8.992;2023-06-01T09:01:44;9.33;;;3.70;;
16969;SDS011;8601;48.718;8.992;2023-06-01T09:04:13;4.93;;;3.33;;
16969;SDS011;8601;48.718;8.992;2023-06-01T09:06:41;7.53;;;3.93;;
16969;SDS011;8601;48.718;8.992;2023-06-01T09:09:09;5.93;;;3.53;;
16969;SDS011;8601;48.718;8.992;2023-06-01T09:11:38;7.20;;;3.90;;
16969;SDS011;8601;48.718;8.992;2023-06-01T09:14:15;5.67;;;3.90;;
16969;SDS011;8601;48.718;8.992;2023-06-01T09:16:46;5.33;;;3.60;;
16969;SDS011;8601;48.718;8.992;2023-06-01T09:19:13;5.73;;;3.70;;
16969;SDS011;8601;48.718;8.992;2023-06-01T09:21:45;8.53;;;4.30;;
16969;SDS011;8601;48.718;8.992;2023-06-01T09:24:23;5.97;;;3.70;;
16969;SDS011;8601;48.718;8.992;2023-06-01T09:26:51;5.00;;;3.37;;
16969;SDS011;8601;48.718;8.992;2023-06-01T09:29:24;4.43;;;3.50;;
16969;SDS011;8601;48.718;8.992;2023-06-01T09:31:51;6.70;;;4.03;;
16969;SDS011;8601;48.718;8.992;2023-06-01T09:34:19;5.22;;;3.78;;
16969;SDS011;8601;48.718;8.992;2023-06-01T09:36:48;5.82;;;3.67;;
16969;SDS011;8601;48.718;8.992;2023-06-01T09:39:16;7.00;;;3.70;;
16969;SDS011;8601;48.718;8.992;2023-06-01T09:41:49;9.15;;;3.83;;
16969;SDS011;8601;48.718;8.992;2023-06-01T09:44:27;6.10;;;3.80;;
16969;SDS011;8601;48.718;8.992;2023-06-01T09:46:56;5.25;;;3.58;;
16969;SDS011;8601;48.718;8.992;2023-06-01T09:49:24;6.80;;;4.00;;
16969;SDS011;8601;48.718;8.992;2023-06-01T09:51:52;5.75;;;3.58;;
16969;SDS011;8601;48.718;8.992;2023-06-01T09:54:34;6.00;;;3.67;;
16969;SDS011;8601;48.718;8.992;2023-06-01T09:57:04;4.35;;;3.67;;
16969;SDS011;8601;48.718;8.992;2023-06-01T09:59:37;4.30;;;3.80;;
16969;SDS011;8601;48.718;8.992;2023-06-01T10:02:06;7.60;;;4.15;;
16969;SDS011;8601;48.718;8.992;2023-06-01T10:04:39;7.60;;;3.80;;
16969;SDS011;8601;48.718;8.992;2023-06-01T10:07:06;9.50;;;4.35;;
16969;SDS011;8601;48.718;8.992;2023-06-01T10:09:36;6.10;;;3.83;;
16969;SDS011;8601;48.718;8.992;2023-06-01T10:12:06;6.93;;;4.15;;
16969;SDS011;8601;48.718;8.992;2023-06-01T10:14:35;6.43;;;4.40;;
16969;SDS011;8601;48.718;8.992;2023-06-01T10:17:03;5.43;;;3.90;;
16969;SDS011;8601;48.718;8.992;2023-06-01T10:19:30;4.97;;;3.90;;
16969;SDS011;8601;48.718;8.992;2023-06-01T10:21:58;5.97;;;3.70;;
16969;SDS011;8601;48.718;8.992;2023-06-01T10:24:26;7.75;;;4.43;;
16969;SDS011;8601;48.718;8.992;2023-06-01T10:26:56;5.28;;;3.65;;
16969;SDS011;8601;48.718;8.992;2023-06-01T10:29:32;5.40;;;3.97;;
16969;SDS011;8601;48.718;8.992;2023-06-01T10:31:59;6.35;;;3.97;;
16969;SDS011;8601;48.718;8.992;2023-06-01T10:34:36;5.40;;;4.13;;
16969;SDS011;8601;48.718;8.992;2023-06-01T10:37:10;5.82;;;4.00;;
16969;SDS011;8601;48.718;8.992;2023-06-01T10:39:41;6.90;;;4.18;;
16969;SDS011;8601;48.718;8.992;2023-06-01T10:45:05;5.57;;;3.70;;
16969;SDS011;8601;48.718;8.992;2023-06-01T10:47:43;5.88;;;4.05;;
16969;SDS011;8601;48.718;8.992;2023-06-01T10:50:16;5.78;;;3.92;;
16969;SDS011;8601;48.718;8.992;2023-06-01T10:52:44;7.60;;;4.03;;
16969;SDS011;8601;48.718;8.992;2023-06-01T10:55:24;4.93;;;3.70;;
16969;SDS011;8601;48.718;8.992;2023-06-01T11:00:49;6.88;;;4.63;;
16969;SDS011;8601;48.718;8.992;2023-06-01T11:03:17;5.65;;;3.70;;
16969;SDS011;8601;48.718;8.992;2023-06-01T11:06:23;5.00;;;4.28;;
16969;SDS011;8601;48.718;8.992;2023-06-01T11:08:55;6.22;;;4.10;;
16969;SDS011;8601;48.718;8.992;2023-06-01T11:11:24;5.88;;;4.55;;
16969;SDS011;8601;48.718;8.992;2023-06-01T11:14:23;7.38;;;4.30;;
16969;SDS011;8601;48.718;8.992;2023-06-01T11:16:53;8.10;;;4.05;;
16969;SDS011;8601;48.718;8.992;2023-06-01T11:19:20;7.25;;;4.57;;
16969;SDS011;8601;48.718;8.992;2023-06-01T11:21:54;5.47;;;4.18;;
16969;SDS011;8601;48.718;8.992;2023-06-01T11:24:31;4.55;;;4.00;;
16969;SDS011;8601;48.718;8.992;2023-06-01T11:27:00;4.72;;;3.75;;
16969;SDS011;8601;48.718;8.992;2023-06-01T11:29:32;6.32;;;3.85;;
16969;SDS011;8601;48.718;8.992;2023-06-01T11:32:01;4.95;;;3.53;;
16969;SDS011;8601;48.718;8.992;2023-06-01T11:34:31;4.97;;;3.90;;
16969;SDS011;8601;48.718;8.992;2023-06-01T11:37:00;5.43;;;4.20;;
16969;SDS011;8601;48.718;8.992;2023-06-01T11:39:27;8.50;;;4.55;;
16969;SDS011;8601;48.718;8.992;2023-06-01T11:42:03;6.18;;;3.88;;
16969;SDS011;8601;48.718;8.992;2023-06-01T11:44:34;8.60;;;3.63;;
16969;SDS011;8601;48.718;8.992;2023-06-01T11:47:05;4.53;;;4.10;;
16969;SDS011;8601;48.718;8.992;2023-06-01T11:49:39;6.20;;;4.20;;
16969;SDS011;8601;48.718;8.992;2023-06-01T11:52:08;5.40;;;4.03;;
16969;SDS011;8601;48.718;8.992;2023-06-01T11:54:36;5.28;;;3.80;;
16969;SDS011;8601;48.718;8.992;2023-06-01T11:57:03;5.10;;;4.03;;
16969;SDS011;8601;48.718;8.992;2023-06-01T11:59:36;5.18;;;3.90;;
16969;SDS011;8601;48.718;8.992;2023-06-01T12:02:09;4.60;;;3.75;;
16969;SDS011;8601;48.718;8.992;2023-06-01T12:04:43;5.88;;;4.05;;
16969;SDS011;8601;48.718;8.992;2023-06-01T12:07:22;6.45;;;4.18;;
16969;SDS011;8601;48.718;8.992;2023-06-01T12:09:49;6.38;;;3.80;;
16969;SDS011;8601;48.718;8.992;2023-06-01T12:12:16;6.68;;;3.85;;
16969;SDS011;8601;48.718;8.992;2023-06-01T12:14:43;6.10;;;4.13;;
16969;SDS011;8601;48.718;8.992;2023-06-01T12:17:11;5.22;;;4.13;;
16969;SDS011;8601;48.718;8.992;2023-06-01T12:19:44;10.00;;;4.28;;
16969;SDS011;8601;48.718;8.992;2023-06-01T12:22:12;6.03;;;4.28;;
16969;SDS011;8601;48.718;8.992;2023-06-01T12:24:39;6.82;;;3.80;;
16969;SDS011;8601;48.718;8.992;2023-06-01T12:27:17;4.32;;;3.47;;
16969;SDS011;8601;48.718;8.992;2023-06-01T12:29:45;4.45;;;3.63;;
16969;SDS011;8601;48.718;8.992;2023-06-01T12:32:16;5.30;;;4.05;;
16969;SDS011;8601;48.718;8.992;2023-06-01T12:35:01;4.72;;;3.97;;
16969;SDS011;8601;48.718;8.992;2023-06-01T12:37:29;6.90;;;3.95;;
16969;SDS011;8601;48.718;8.992;2023-06-01T12:39:56;7.55;;;4.05;;
16969;SDS011;8601;48.718;8.992;2023-06-01T12:45:09;4.90;;;3.78;;
16969;SDS011;8601;48.718;8.992;2023-06-01T12:47:38;5.57;;;3.85;;
16969;SDS011;8601;48.718;8.992;2023-06-01T12:50:07;4.65;;;3.85;;
16969;SDS011;8601;48.718;8.992;2023-06-01T12:52:36;5.05;;;3.95;;
16969;SDS011;8601;48.718;8.992;2023-06-01T12:55:03;4.38;;;3.85;;
16969;SDS011;8601;48.718;8.992;2023-06-01T12:57:31;6.90;;;3.97;;
16969;SDS011;8601;48.718;8.992;2023-06-01T12:59:58;6.57;;;3.90;;
16969;SDS011;8601;48.718;8.992;2023-06-01T13:02:25;5.63;;;3.83;;
16969;SDS011;8601;48.718;8.992;2023-06-01T13:04:54;6.15;;;4.13;;
16969;SDS011;8601;48.718;8.992;2023-06-01T13:07:22;5.65;;;4.15;;
16969;SDS011;8601;48.718;8.992;2023-06-01T13:09:49;5.70;;;3.85;;
16969;SDS011;8601;48.718;8.992;2023-06-01T13:12:17;6.00;;;3.80;;
16969;SDS011;8601;48.718;8.992;2023-06-01T13:14:44;5.70;;;4.03;;
16969;SDS011;8601;48.718;8.992;2023-06-01T13:17:11;4.93;;;3.85;;
16969;SDS011;8601;48.718;8.992;2023-06-01T13:19:39;5.65;;;3.60;;
16969;SDS011;8601;48.718;8.992;2023-06-01T13:22:07;5.65;;;4.00;;
16969;SDS011;8601;48.718;8.992;2023-06-01T13:24:34;6.57;;;3.85;;
16969;SDS011;8601;48.718;8.992;2023-06-01T13:27:01;5.88;;;3.72;;
16969;SDS011;8601;48.718;8.992;2023-06-01T13:29:29;5.85;;;3.85;;
16969;SDS011;8601;48.718;8.992;2023-06-01T13:31:56;4.60;;;3.88;;
16969;SDS011;8601;48.718;8.992;2023-06-01T13:34:23;6.43;;;3.80;;
16969;SDS011;8601;48.718;8.992;2023-06-01T13:36:50;6.28;;;3.83;;
16969;SDS011;8601;48.718;8.992;2023-06-01T13:39:19;4.40;;;3.47;;
16969;SDS011;8601;48.718;8.992;2023-06-01T13:41:46;5.38;;;3.80;;
16969;SDS011;8601;48.718;8.992;2023-06-01T13:44:13;5.20;;;3.70;;
16969;SDS011;8601;48.718;8.992;2023-06-01T13:46:42;4.70;;;3.47;;
16969;SDS011;8601;48.718;8.992;2023-06-01T13:49:09;6.82;;;4.03;;
16969;SDS011;8601;48.718;8.992;2023-06-01T13:51:37;5.32;;;4.10;;
16969;SDS011;8601;48.718;8.992;2023-06-01T13:54:04;7.78;;;3.53;;
16969;SDS011;8601;48.718;8.992;2023-06-01T13:56:32;6.15;;;3.85;;
16969;SDS011;8601;48.718;8.992;2023-06-01T13:58:59;5.85;;;3.40;;
16969;SDS011;8601;48.718;8.992;2023-06-01T14:01:27;6.00;;;3.92;;
16969;SDS011;8601;48.718;8.992;2023-06-01T14:03:54;7.60;;;3.60;;
16969;SDS011;8601;48.718;8.992;2023-06-01T14:06:22;6.57;;;3.67;;
16969;SDS011;8601;48.718;8.992;2023-06-01T14:08:49;4.90;;;3.72;;
16969;SDS011;8601;48.718;8.992;2023-06-01T14:11:16;4.68;;;3.53;;
16969;SDS011;8601;48.718;8.992;2023-06-01T14:13:44;6.40;;;3.75;;
16969;SDS011;8601;48.718;8.992;2023-06-01T14:16:11;6.47;;;3.65;;
16969;SDS011;8601;48.718;8.992;2023-06-01T14:18:38;10.85;;;3.72;;
16969;SDS011;8601;48.718;8.992;2023-06-01T14:21:06;6.13;;;3.85;;
16969;SDS011;8601;48.718;8.992;2023-06-01T14:23:33;8.38;;;3.78;;
16969;SDS011;8601;48.718;8.992;2023-06-01T14:26:00;9.18;;;3.80;;
16969;SDS011;8601;48.718;8.992;2023-06-01T14:28:27;5.75;;;3.85;;
16969;SDS011;8601;48.718;8.992;2023-06-01T14:30:56;6.22;;;3.25;;
16969;SDS011;8601;48.718;8.992;2023-06-01T14:33:22;6.43;;;3.10;;
16969;SDS011;8601;48.718;8.992;2023-06-01T14:35:50;4.95;;;3.17;;
16969;SDS011;8601;48.718;8.992;2023-06-01T14:38:17;4.20;;;3.10;;
16969;SDS011;8601;48.718;8.992;2023-06-01T14:40:45;4.78;;;3.33;;
16969;SDS011;8601;48.718;8.992;2023-06-01T14:43:12;7.28;;;3.63;;
16969;SDS011;8601;48.718;8.992;2023-06-01T14:45:39;4.65;;;3.20;;
16969;SDS011;8601;48.718;8.992;2023-06-01T14:48:07;4.35;;;3.10;;
16969;SDS011;8601;48.718;8.992;2023-06-01T14:50:35;6.65;;;3.13;;
16969;SDS011;8601;48.718;8.992;2023-06-01T14:53:02;3.63;;;2.78;;
16969;SDS011;8601;48.718;8.992;2023-06-01T14:55:29;4.57;;;2.88;;
16969;SDS011;8601;48.718;8.992;2023-06-01T14:57:56;3.95;;;3.10;;
16969;SDS011;8601;48.718;8.992;2023-06-01T15:00:29;5.47;;;2.90;;
16969;SDS011;8601;48.718;8.992;2023-06-01T15:02:55;4.38;;;2.70;;
16969;SDS011;8601;48.718;8.992;2023-06-01T15:05:24;6.30;;;3.10;;
16969;SDS011;8601;48.718;8.992;2023-06-01T15:07:51;7.07;;;3.17;;
16969;SDS011;8601;48.718;8.992;2023-06-01T15:10:18;4.20;;;3.05;;
16969;SDS011;8601;48.718;8.992;2023-06-01T15:12:45;4.60;;;3.00;;
16969;SDS011;8601;48.718;8.992;2023-06-01T15:15:12;5.93;;;3.10;;
16969;SDS011;8601;48.718;8.992;2023-06-01T15:17:40;4.53;;;2.90;;